Olivia, Olivia Regional Airport (KOVL)

NameOlivia Regional Airport
CityOlivia
CountryUnited States
ICAOKOVL
IATA
Altitude328 m
CoordinatesGoogle Map
Live Air TrafficLiveATC.net
METARKOVL 170356Z AUTO 16008KT 10SM CLR 23/21 A2994 RMK AO2
2019-09-17 03:56:00 Wind: South-Southeast (160°) 4.12 m/s - Visibility: 16093.4 m - Temperature: 23 °C - Dew point: 21 °C - Humidity: 88.6% - Pressure: 1013.88 hPa
Statistics

The table below shows the detailed information of all flights to/from Olivia, Olivia Regional Airport (KOVL).